DeAndre Wright

Recruteur en chef - New England Revolution
2 Déc 2027
Jeudi
Processus

Personnalité

Adaptabilité (16) Ambition (12) Controverse (6) Loyauté (2) Pression (15) Professionnalisme (4) Sportivité (3) Tempérament (12)

Profil

Style d'entraînement Démocratique
Diplôme Continental B
Détermination 10
Gestion des joueurs 4
Motivation 12
Discipline 4
Satisfaction professionnelle
100%
Fatigue
0%
Rôle Recruteur en chef
Salaire 59.7K p/s
Contrat 14.03.2028

Performance

Comportement Bon
Efficacité de l'entraînement
48%
Développement des joueurs
35%
Prévention des blessures
60%
Mise en place tactique
25%

Événements récents

A participé à une réunion de recrutement maintenant
A recommandé une cible de transfert maintenant
A participé à une réunion de recrutement maintenant
A participé à une réunion de recrutement maintenant
A recommandé une cible de transfert maintenant
A recommandé une cible de transfert maintenant
A recommandé une cible de transfert maintenant
A évalué un joueur 7j

Suivi en cours

215
Joueur Club Statut Capacité Confiance Observé Dernière observation Dernier vote
Onuorah Onyedika Kun Khalifat Actif 93 / 93 40% 2 27.11.2027 -
Siyabonga Mabena Chippa United Actif 113 / 119 40% 2 27.11.2027 -
Lucas Camejo River Plate Actif 80 / 82 40% 1 27.11.2027 -
Trey Nyoni Rotherham United Actif 131 / 153 40% 3 26.11.2027 -
Ryan Kavuma-McQueen Accrington Stanley Actif 106 / 137 40% 1 26.11.2027 -
Joel Ezra Enyimba Actif 98 / 103 40% 4 24.11.2027 -
Sipho Ngqakabana Zenit Penza Actif 76 / 100 40% 2 24.11.2027 -
Themba Dala Ajax Cape Town Actif 115 / 109 40% 1 24.11.2027 -
Juan Román Gimenez Estudiantes Actif 91 / 105 40% 1 23.11.2027 -
Esquerdinha Shrewsbury Town Actif 125 / 140 40% 1 23.11.2027 -
Josh King Chelsea Actif 152 / 166 40% 5 21.11.2027 -
Bazoumana Touré Newcastle United Actif 145 / 163 40% 2 21.11.2027 -
Mads Bomholt Stabaek Actif 119 / 107 40% 1 21.11.2027 -
Santiago López Independiente Actif 122 / 138 40% 2 19.11.2027 -
Oscar Otero Atletico Venezuela Actif 103 / 110 40% 1 19.11.2027 -
Ezekiah Omuri Shabana Actif 67 / 79 40% 3 18.11.2027 -
Daniel Rigge Accrington Stanley Actif 110 / 114 40% 1 18.11.2027 -
Fredrik Ardraa Stromsgodset Actif 104 / 120 40% 1 16.11.2027 -
Ryan McAidoo Gillingham Actif 126 / 133 40% 1 16.11.2027 -
Chris Rigg Sunderland Actif 137 / 152 40% 2 15.11.2027 -
Mateo Silvetti Los Angeles Football Club Actif 119 / 135 40% 2 15.11.2027 -
Hervin Goyes Deportivo Pasto Actif 110 / 101 40% 1 15.11.2027 -
Mustapha Umar Kano Pillars Actif 99 / 90 40% 3 14.11.2027 -
Chaka Coulibaly Remo Stars Actif 79 / 110 40% 1 14.11.2027 -
Tobi Ige Bendel Insurance Actif 94 / 79 40% 1 13.11.2027 -
Hassan Beja AFC Leopards Actif 82 / 96 40% 1 13.11.2027 -
Mateo Peralta Danubio Actif 110 / 130 40% 1 12.11.2027 -
Ibrahim Fullah Charlton Athletic Actif 127 / 113 40% 1 12.11.2027 -
Abdulrahman Hamisu Niger Tornadoes Actif 97 / 92 40% 1 12.11.2027 -
Diogo Guzmán Montevideo City Torque Actif 114 / 115 40% 1 10.11.2027 -
Musa Malik Ikorodu City Actif 93 / 88 40% 1 08.11.2027 -
Oscar Schwartau Norwich City Actif 138 / 119 40% 1 07.11.2027 -
Ruben Ramos LA Galaxy Actif 105 / 115 40% 1 07.11.2027 -
Jayden Danns Wigan Athletic Actif 131 / 123 40% 1 07.11.2027 -
Maren Kefas Plateau United Actif 89 / 103 40% 1 05.11.2027 -
Jake Evans Colchester United Actif 106 / 132 40% 1 05.11.2027 -
Mfundo Vilakazi Kaizer Chiefs Actif 129 / 126 40% 1 05.11.2027 -
Archie Gray Derby County Actif 158 / 138 40% 1 04.11.2027 -
Sunday Aniebet Enyimba Actif 92 / 102 40% 1 04.11.2027 -
Lewis Orford Swindon Town Actif 113 / 111 40% 1 03.11.2027 -
Honest Ahanor Atalanta Actif 135 / 154 40% 1 03.11.2027 -
Alex Amaefula Kun Khalifat Actif 72 / 67 40% 1 02.11.2027 -
Malick Yalcouyé Brighton Actif 129 / 139 40% 1 01.11.2027 -
Ronan Kpakio Cardiff City Actif 111 / 142 40% 1 01.11.2027 -
David Chinagorom Abia Warriors Actif 71 / 73 40% 1 07.10.2027 -
Harbor Miller LA Galaxy Actif 90 / 107 40% 1 07.10.2027 -
Gideon Manaseh Ikorodu City Actif 99 / 94 40% 1 07.10.2027 -
Caleb Yirenkyi Coventry City Actif 146 / 133 40% 4 05.10.2027 -
Chibueze Oputa Rangers International Actif 97 / 102 40% 1 05.10.2027 -
Veljko Milosavljević Aston Villa Actif 129 / 153 40% 1 05.10.2027 -
Josh Nichols Tranmere Rovers Actif 115 / 129 40% 1 04.10.2027 -
Marvelous Freedom Ikorodu City Actif 78 / 87 40% 3 08.09.2027 -
Jayden Meghoma Bristol City Actif 111 / 108 40% 1 08.09.2027 -
Reggie Walsh Chelsea Actif 120 / 146 40% 1 07.09.2027 -
Jofrank Istifanus Nasarawa United Actif 72 / 74 40% 1 07.09.2027 -
Ernie Weaver AFC Wimbledon Actif 115 / 128 40% 4 26.07.2027 -
Christ Inao Oulaï Fiorentina Actif 138 / 131 40% 3 26.07.2027 -
Martim Cunha Porto Actif 104 / 119 40% 4 09.07.2027 -
Matías Gómez Granada Actif 117 / 136 40% 1 09.07.2027 -
Bradley Phiri Lillestrom Actif 112 / 112 66% 1 08.07.2027 Approuver
Achraf Bencharki FC Copenhagen Rapport prêt 127 / 127 67% 1 08.07.2027 -
Daniel Dennis Ikorodu City Actif 85 / 110 40% 3 05.07.2027 -
Juan Giménez Celta Actif 117 / 132 40% 2 05.07.2027 -
Ezra Mayers West Ham United Actif 125 / 117 40% 3 03.07.2027 -
Rivaldo Grobler Free State Stars Actif 100 / 97 40% 4 03.07.2027 -
Davide Bartesaghi AC Milan Actif 134 / 134 40% 4 01.07.2027 -
Ibrahim Sabiu Bendel Insurance Actif 78 / 104 40% 2 01.07.2027 -
Edwin Asamoah Berekum Chelsea Actif 75 / 88 40% 3 30.06.2027 -
Josh Smith Accrington Stanley Actif 74 / 87 40% 1 30.06.2027 -
Matvey Kislyak CSKA Moscow Actif 139 / 147 40% 1 29.06.2027 -
Daniel Kelly Oxford United Actif 117 / 119 40% 4 26.06.2027 -
Johan Manzambi Newcastle United Actif 136 / 164 40% 2 25.06.2027 -
Leonardo Mendicino Bari Actif 118 / 108 40% 2 25.06.2027 -
Zaïd BafdilI Sporting CP Actif 83 / 109 40% 2 25.06.2027 -
Mpho Khethang AS Police Actif 73 / 69 40% 2 20.06.2027 -
David Damboama El-Kanemi Warriors Actif 85 / 94 40% 1 18.06.2027 -
Kazunari Kita Real Sociedad Actif 96 / 94 40% 1 18.06.2027 -
Mauricio Amaro Atlanta United FC Actif 122 / 117 40% 1 17.06.2027 -
Andrea Bertoncini Carpi Actif 92 / 107 40% 1 17.06.2027 -
Percy Jali Free State Stars Actif 98 / 115 40% 2 13.06.2027 -
Dylan Lawlor Cardiff City Actif 111 / 112 40% 2 13.06.2027 -
Daniel Vernattus Metalist Actif 96 / 86 40% 3 12.06.2027 -
Jarvis Thornton Sheffield Wednesday Actif 91 / 125 40% 1 12.06.2027 -
Jan Bürger Gillingham Actif 103 / 133 40% 3 09.06.2027 -
Ibrahim Maza Bayer Leverkusen Actif 153 / 166 40% 5 08.06.2027 -
Yussif Saidu Zaragoza Actif 113 / 131 40% 2 08.06.2027 -
Jofre Torrents Ajax Actif 137 / 143 40% 5 06.06.2027 -
Gonçalo Oliveira Benfica Actif 111 / 117 40% 3 05.06.2027 -
Adam Bakoune Ospitaletto Actif 109 / 118 40% 1 03.06.2027 -
Riley Owen Trento Actif 102 / 116 40% 1 03.06.2027 -
Keagan Tau Ajax Cape Town Actif 89 / 112 40% 1 01.06.2027 -
Fuzy Taylor Medeama Actif 71 / 80 40% 1 31.05.2027 -
Pietro Reggiori Pro Patria Actif 83 / 101 40% 1 31.05.2027 -
Hamish Douglas Grimsby Town Actif 90 / 84 40% 1 29.05.2027 -
Zane Albarus Cambridge United Actif 97 / 97 40% 1 23.05.2027 -
Sascha Britschgi Padova Actif 120 / 125 40% 1 20.05.2027 -
Joel McGregor Swindon Town Actif 87 / 88 40% 2 14.05.2027 -
Issa Yusuf Shooting Stars Actif 90 / 89 40% 1 11.05.2027 -
Hlompho Lorch Ajax Cape Town Actif 88 / 117 40% 1 03.05.2027 -
Tyreece Campbell Charlton Athletic Actif 110 / 137 40% 1 31.03.2027 -
Tshepang Moremi Orlando Pirates Actif 114 / 99 40% 1 31.03.2027 -
Tom Fellows Southampton Actif 132 / 139 40% 1 31.03.2027 -
Ethan Horvath New York Red Bulls Actif 112 / 112 65% 1 15.03.2027 Approuver
Juan Mosquera Sheffield Wednesday Actif 122 / 131 40% 1 15.03.2027 -
Tyler Goodrham Oxford United Actif 120 / 109 40% 1 15.03.2027 -
Ben Ahmed Kohili Paradou Actif 115 / 124 40% 2 01.03.2027 -
Kyle Duncan Minnesota United FC Actif 114 / 104 65% 1 01.03.2027 Approuver
Luke Baartman ES Mostaganem Actif 100 / 122 40% 1 01.03.2027 -
Pablo Solari Galatasaray Actif 128 / 128 68% 1 14.02.2027 Approuver
Khama Dolly Utrecht Actif 123 / 124 67% 1 14.02.2027 Approuver
Lewis Morgan SuperSport United Actif 126 / 126 67% 1 14.02.2027 Approuver
Juan Bezerra BK Hacken Négociation 117 / 121 66% 1 14.02.2027 -
Tom Cannon Sheffield United Actif 137 / 117 40% 3 12.02.2027 -
Shea Charles Southampton Actif 121 / 140 40% 1 11.02.2027 -
Jack Rudoni Coventry City Actif 140 / 130 40% 1 11.02.2027 -
Mohamed-Ali Cho Hull City Actif 125 / 140 40% 1 11.02.2027 -
Lee Bonis Chesterfield Actif 96 / 116 40% 4 10.02.2027 -
Rhian Brewster Oxford United Actif 134 / 138 40% 1 10.02.2027 -
Iwan Morgan Grimsby Town Actif 114 / 104 40% 1 09.02.2027 -
Abubakar Garba Grasshopper Actif 78 / 80 40% 1 09.02.2027 -
George Lloyd Shrewsbury Town Actif 103 / 104 40% 1 08.02.2027 -
Brayan León Mamelodi Sundowns Actif 122 / 105 40% 6 06.02.2027 -
Cameron Archer Southampton Actif 135 / 130 40% 1 06.02.2027 -
Etiosa Ighodaro Kaizer Chiefs Actif 98 / 95 40% 5 05.02.2027 -
Morgan Whittaker Middlesbrough Actif 120 / 130 40% 2 05.02.2027 -
Evidence Makgopa Orlando Pirates Actif 120 / 98 40% 5 04.02.2027 -
Dale Taylor Blackpool Actif 103 / 97 40% 1 04.02.2027 -
Yousef Salech Cardiff City Actif 124 / 120 40% 2 02.02.2027 -
Will Lankshear Middlesbrough Actif 128 / 117 40% 2 01.02.2027 -
Dom Ballard Leyton Orient Actif 120 / 142 40% 1 31.01.2027 -
Promise Omochere Bristol Rovers Actif 97 / 111 40% 2 29.01.2027 -
Tyreece Simpson Maritzburg United Actif 81 / 106 40% 3 27.01.2027 -
Niall Ennis Blackpool Actif 127 / 104 40% 1 27.01.2027 -
Bojan Radulović Huddersfield Town Actif 129 / 97 40% 1 26.01.2027 -
Mateus Mané Manchester United Actif 138 / 129 40% 1 25.01.2027 -
Lorenzo Colombo Genoa Actif 137 / 123 40% 2 22.01.2027 -
Christian Krasnodar Actif 152 / 144 40% 1 21.01.2027 -
Danyil Alefirenko Chornomorets Actif 117 / 111 40% 1 21.01.2027 -
Cameron Gardner Grimsby Town Actif 81 / 103 40% 2 20.01.2027 -
Lorenzo De Leo Renate Actif 105 / 108 40% 1 20.01.2027 -
Emmanuel Marfo Aduana Stars Actif 74 / 72 40% 1 18.01.2027 -
Kelvin Obeng Medeama Actif 85 / 81 40% 1 18.01.2027 -
Ruben van Bommel Ferencvaros Actif 148 / 137 40% 2 16.01.2027 -
Jens Odgaard Bologna Actif 146 / 141 40% 1 16.01.2027 -
Prince Ukachukwu Sumgayit Actif 103 / 90 40% 2 15.01.2027 -
Oswin Appollis Orlando Pirates Actif 120 / 117 40% 2 15.01.2027 -
Ante Brekalo Zadar Actif 118 / 124 40% 1 14.01.2027 -
Jesús Rodríguez Como Actif 153 / 163 40% 1 10.01.2027 -
Sibusiso Tshabalala Polokwane City Actif 95 / 80 40% 1 09.01.2027 -
Miloš Jovičić Zabbar St. Patrick Actif 91 / 96 40% 1 08.01.2027 -
Dean Erasmus Platinum Stars Actif 75 / 84 40% 1 06.01.2027 -
Kwame Opoku Asante Kotoko Actif 100 / 83 40% 4 02.01.2027 -
Kévin Denkey FC Cincinnati Actif 122 / 121 40% 4 01.01.2027 Observer
Luciano Gondou CSKA Moscow Actif 119 / 130 40% 2 31.12.2026 -
Endrick Real Madrid Actif 162 / 133 40% 3 28.12.2026 -
Matías Fernández-Pardo Newcastle United Actif 129 / 137 40% 1 28.12.2026 -
Femi Seriki Sheffield United Actif 137 / 122 40% 1 26.12.2026 -
Sidiki Chérif Coventry City Actif 132 / 111 40% 2 23.12.2026 -
Rafael Navarro St. Louis CITY SC Actif 124 / 112 40% 2 17.12.2026 -
Kenan Dervišagić Floriana Actif 106 / 84 40% 2 17.12.2026 -
Sonny Perkins Leyton Orient Actif 87 / 112 40% 1 15.12.2026 -
Agustín Módica Gimnasia y Esgrima Actif 122 / 112 40% 1 15.12.2026 -
Suleiman Camara Slovan Bratislava Actif 107 / 115 40% 2 14.12.2026 -
Rubens Dinamo Moscow Actif 126 / 125 40% 1 14.12.2026 -
Alexander Díaz Deportivo Riestra Actif 109 / 110 40% 1 11.12.2026 -
Reda Khadra Qarabag Actif 122 / 130 40% 1 11.12.2026 -
Alexis Cuello San Lorenzo Actif 119 / 117 40% 1 08.12.2026 -
Luís Mota Zabbar St. Patrick Actif 75 / 77 40% 1 07.12.2026 -
Jovon Makama Norwich City Actif 115 / 128 40% 1 07.12.2026 -
Everton Bala Levski Actif 128 / 121 40% 3 06.12.2026 -
Jonathan Gyan Liberty Professionals Actif 108 / 80 40% 1 06.12.2026 -
Matías Fernández Independiente Rivadavia Actif 131 / 113 40% 1 06.12.2026 -
Petar Stanić Ludogorets Actif 121 / 125 40% 2 05.12.2026 -
Chico Banza Zamalek Actif 124 / 121 40% 1 03.12.2026 -
Mandla Mahlangu Ajax Cape Town Actif 112 / 95 40% 2 02.12.2026 -
Themba Ngcobo SuperSport United Actif 102 / 113 40% 3 01.12.2026 Observer
Maxim De Cuyper Brighton Actif 150 / 138 40% 1 30.11.2026 -
Valentín Barco Chelsea Actif 133 / 138 40% 1 30.11.2026 -
Mohammed Yahaya Great Olympics Actif 100 / 105 40% 1 27.11.2026 -
Ramiro Ruiz Rodríguez Atlético Tucumán Actif 124 / 121 40% 1 27.11.2026 -
José Martínes CSKA 1948 Actif 122 / 125 40% 1 23.11.2026 -
Mojmír Chytil NK Maribor Actif 144 / 117 40% 1 21.11.2026 -
Peter Christiansen Viking Actif 125 / 131 40% 1 19.11.2026 -
Kwadwo Obeng Junior Heart of Lions Actif 96 / 90 40% 1 18.11.2026 -
Bongani Mothiba SuperSport United Actif 90 / 71 40% 1 15.11.2026 -
Timothy Zechariah Rivers United Actif 84 / 106 40% 2 13.11.2026 -
Wessam Abou Ali Columbus Crew Actif 131 / 132 40% 2 12.11.2026 -
Kein Sato FC Tokyo Actif 135 / 127 40% 1 07.11.2026 -
Nathan Ordaz Metalist Actif 95 / 95 40% 1 05.11.2026 -
Sunday Megwo Abia Warriors Actif 95 / 97 40% 2 04.11.2026 -
Jaze Kabia Grimsby Town Actif 97 / 76 40% 1 03.11.2026 -
Ole-Didrik Blomberg Bodo/Glimt Actif 120 / 119 40% 1 02.11.2026 -
Yeangel Montero Naxxar Lions Actif 118 / 98 40% 1 02.11.2026 -
Louis Appéré Cambridge United Actif 114 / 106 40% 1 01.11.2026 -
Peter Thiong'o Kakamega Homeboyz Actif 82 / 79 40% 1 30.10.2026 -
Jonah James Mosta Actif 95 / 78 40% 2 29.10.2026 -
Musa Masika Mathare United Actif 90 / 97 40% 1 29.10.2026 -
Alassana Jatta Notts County Actif 94 / 98 40% 1 26.10.2026 -
Samuel Ayanrinde Kenya Police Actif 70 / 83 40% 1 25.10.2026 -
Elias Hoff Melkersen Stromsgodset Actif 129 / 119 40% 1 25.10.2026 -
Ammar Ramadan DAC Dunajska Streda Actif 108 / 133 40% 1 23.10.2026 -
Sagir Arce Paralimni Actif 109 / 116 40% 2 21.10.2026 -
Ola Brynhildsen Bodo/Glimt Actif 117 / 134 40% 1 21.10.2026 -
Uche Sabastine Warri Wolves Actif 87 / 82 40% 1 20.10.2026 -
Jerome Karelse Golden Arrows Actif 92 / 95 40% 1 19.10.2026 -
Ismail Sarki Niger Tornadoes Actif 79 / 96 40% 1 19.10.2026 -
Tobias Gulliksen Rapid Wien Actif 109 / 125 40% 1 19.10.2026 -
Marcelo Allende Mamelodi Sundowns Actif 143 / 129 40% 2 16.10.2026 -
Duncan McGuire Houston Dynamo Actif 128 / 112 40% 1 16.10.2026 -
Samuel Anakwe Remo Stars Actif 83 / 79 40% 1 12.10.2026 -
Theo Corbeanu Toronto FC Actif 117 / 112 40% 1 12.10.2026 -
Sam Nombe Milton Keynes Dons Actif 124 / 115 40% 2 09.10.2026 -
Auwalu Ali Malam Kano Pillars Actif 73 / 74 40% 1 09.10.2026 -
Promise Awosanmi Shooting Stars Actif 100 / 66 40% 1 04.08.2026 -
Barnaby Williams Southampton Actif 90 / 80 40% 1 01.08.2026 -